FIN39C EFOU-EFHK
Flight info
| Callsign | FIN39C |
|---|---|
| Flight time | 0h 46m |
| Altitude | 35000 |
| Route | MIKNU Y86 LUSEP |
| Aircraft | A320/M-SDE3FGHIRWY/LB1 |
Departure
| Time | 2026-05-06 17:30 |
|---|---|
| Airport | Oulu Airport (EFOU) |
Arrival
| Time | 2026-05-06 18:16 |
|---|---|
| Airport | Helsinki Vantaa Airport (EFHK) |
| Time | Latitude | Longitude | Altitude | Speed | Heading |
|---|---|---|---|---|---|
| 2026-05-06 17:20 | 64.92782 | 25.37461 | 51 ft | 0 kts | 28° |
| 2026-05-06 17:25 | 64.92773 | 25.37449 | 43 ft | 2 kts | 29° |
| 2026-05-06 17:25 | 64.92758 | 25.37430 | 47 ft | 2 kts | 30° |
| 2026-05-06 17:25 | 64.92744 | 25.37411 | 47 ft | 2 kts | 32° |
| 2026-05-06 17:25 | 64.92731 | 25.37389 | 47 ft | 2 kts | 39° |
| 2026-05-06 17:26 | 64.92719 | 25.37361 | 46 ft | 2 kts | 90° |
| 2026-05-06 17:26 | 64.92721 | 25.37338 | 47 ft | 0 kts | 117° |
| 2026-05-06 17:26 | 64.92721 | 25.37337 | 47 ft | 0 kts | 117° |
| 2026-05-06 17:27 | 64.92710 | 25.37385 | 49 ft | 9 kts | 120° |
| 2026-05-06 17:27 | 64.92665 | 25.37557 | 50 ft | 11 kts | 122° |
| 2026-05-06 17:27 | 64.92623 | 25.37722 | 50 ft | 13 kts | 120° |
| 2026-05-06 17:28 | 64.92580 | 25.37891 | 50 ft | 12 kts | 129° |
| 2026-05-06 17:28 | 64.92512 | 25.37919 | 50 ft | 11 kts | 209° |
| 2026-05-06 17:28 | 64.92465 | 25.37733 | 45 ft | 14 kts | 246° |
| 2026-05-06 17:28 | 64.92471 | 25.37562 | 44 ft | 8 kts | 301° |
| 2026-05-06 17:29 | 64.92472 | 25.37555 | 44 ft | 0 kts | 301° |
| 2026-05-06 17:29 | 64.92494 | 25.37472 | 47 ft | 26 kts | 301° |
| 2026-05-06 17:29 | 64.92727 | 25.36558 | 50 ft | 101 kts | 301° |
| 2026-05-06 17:29 | 64.93189 | 25.34743 | 95 ft | 151 kts | 300° |
| 2026-05-06 17:30 | 64.93754 | 25.32570 | 664 ft | 161 kts | 301° |
| 2026-05-06 17:30 | 64.94367 | 25.30212 | 1244 ft | 182 kts | 304° |
| 2026-05-06 17:30 | 64.95083 | 25.27494 | 1664 ft | 203 kts | 304° |
| 2026-05-06 17:30 | 64.95790 | 25.24720 | 2650 ft | 196 kts | 296° |
| 2026-05-06 17:31 | 64.95908 | 25.21535 | 3441 ft | 202 kts | 254° |
| 2026-05-06 17:31 | 64.95064 | 25.18787 | 3986 ft | 222 kts | 217° |
| 2026-05-06 17:31 | 64.93724 | 25.16764 | 4488 ft | 243 kts | 210° |
| 2026-05-06 17:31 | 64.92179 | 25.14739 | 5027 ft | 264 kts | 209° |
| 2026-05-06 17:32 | 64.90473 | 25.12901 | 5824 ft | 274 kts | 195° |
| 2026-05-06 17:32 | 64.88571 | 25.12494 | 6812 ft | 276 kts | 175° |
| 2026-05-06 17:32 | 64.86683 | 25.13438 | 7750 ft | 280 kts | 162° |
| 2026-05-06 17:32 | 64.84805 | 25.14822 | 8661 ft | 285 kts | 163° |
| 2026-05-06 17:33 | 64.82833 | 25.15483 | 9577 ft | 289 kts | 179° |
| 2026-05-06 17:33 | 64.80787 | 25.15572 | 10193 ft | 304 kts | 179° |
| 2026-05-06 17:33 | 64.78591 | 25.15639 | 10501 ft | 327 kts | 179° |
| 2026-05-06 17:33 | 64.76263 | 25.15699 | 10753 ft | 351 kts | 179° |
| 2026-05-06 17:34 | 64.73759 | 25.15760 | 11142 ft | 367 kts | 180° |
| 2026-05-06 17:34 | 64.71172 | 25.15827 | 11793 ft | 374 kts | 180° |
| 2026-05-06 17:34 | 64.68560 | 25.15902 | 12636 ft | 375 kts | 180° |
| 2026-05-06 17:34 | 64.65938 | 25.15986 | 13424 ft | 379 kts | 180° |
| 2026-05-06 17:35 | 64.63287 | 25.16077 | 14057 ft | 384 kts | 180° |
| 2026-05-06 17:35 | 64.60606 | 25.16172 | 14784 ft | 386 kts | 180° |
| 2026-05-06 17:35 | 64.57898 | 25.16266 | 15356 ft | 392 kts | 180° |
| 2026-05-06 17:36 | 64.52412 | 25.16436 | 16727 ft | 398 kts | 180° |
| 2026-05-06 17:36 | 64.49626 | 25.16523 | 17357 ft | 402 kts | 180° |
| 2026-05-06 17:36 | 64.46852 | 25.16616 | 18008 ft | 406 kts | 179° |
| 2026-05-06 17:36 | 64.44013 | 25.16713 | 18572 ft | 409 kts | 179° |
| 2026-05-06 17:37 | 64.41171 | 25.16809 | 19239 ft | 408 kts | 179° |
| 2026-05-06 17:37 | 64.38333 | 25.16902 | 19918 ft | 409 kts | 180° |
| 2026-05-06 17:37 | 64.35482 | 25.16990 | 20509 ft | 411 kts | 180° |
| 2026-05-06 17:37 | 64.32622 | 25.17077 | 21095 ft | 412 kts | 180° |
| 2026-05-06 17:38 | 64.29746 | 25.17163 | 21635 ft | 414 kts | 180° |
| 2026-05-06 17:38 | 64.26856 | 25.17248 | 22134 ft | 417 kts | 180° |
| 2026-05-06 17:38 | 64.23945 | 25.17336 | 22601 ft | 419 kts | 180° |
| 2026-05-06 17:38 | 64.21020 | 25.17424 | 23071 ft | 421 kts | 180° |
| 2026-05-06 17:39 | 64.18118 | 25.17510 | 23497 ft | 424 kts | 180° |
| 2026-05-06 17:39 | 64.15163 | 25.17598 | 23847 ft | 426 kts | 180° |
| 2026-05-06 17:39 | 64.12190 | 25.17692 | 24189 ft | 429 kts | 181° |
| 2026-05-06 17:39 | 64.09199 | 25.17786 | 24515 ft | 431 kts | 181° |
| 2026-05-06 17:40 | 64.06183 | 25.17881 | 24782 ft | 436 kts | 182° |
| 2026-05-06 17:40 | 64.03138 | 25.17973 | 25037 ft | 440 kts | 182° |
| 2026-05-06 17:40 | 64.00069 | 25.18066 | 25342 ft | 442 kts | 182° |
| 2026-05-06 17:40 | 63.96981 | 25.18157 | 25649 ft | 445 kts | 182° |
| 2026-05-06 17:41 | 63.93881 | 25.18244 | 25946 ft | 447 kts | 182° |
| 2026-05-06 17:41 | 63.90761 | 25.18334 | 26249 ft | 449 kts | 182° |
| 2026-05-06 17:41 | 63.87671 | 25.18429 | 26530 ft | 451 kts | 182° |
| 2026-05-06 17:41 | 63.84483 | 25.18531 | 26810 ft | 453 kts | 182° |
| 2026-05-06 17:42 | 63.81366 | 25.18631 | 27075 ft | 455 kts | 183° |
| 2026-05-06 17:42 | 63.78193 | 25.18734 | 27336 ft | 457 kts | 183° |
| 2026-05-06 17:42 | 63.75006 | 25.18836 | 27579 ft | 459 kts | 183° |
| 2026-05-06 17:42 | 63.71807 | 25.18931 | 27779 ft | 460 kts | 184° |
| 2026-05-06 17:43 | 63.68601 | 25.19021 | 28023 ft | 461 kts | 184° |
| 2026-05-06 17:43 | 63.65397 | 25.19110 | 28335 ft | 460 kts | 184° |
| 2026-05-06 17:43 | 63.62197 | 25.19205 | 28653 ft | 460 kts | 184° |
| 2026-05-06 17:43 | 63.59002 | 25.19306 | 28966 ft | 459 kts | 184° |
| 2026-05-06 17:44 | 63.55808 | 25.19409 | 29268 ft | 459 kts | 185° |
| 2026-05-06 17:44 | 63.52615 | 25.19507 | 29594 ft | 458 kts | 185° |
| 2026-05-06 17:44 | 63.49470 | 25.19597 | 29923 ft | 458 kts | 185° |
| 2026-05-06 17:44 | 63.46288 | 25.19682 | 30184 ft | 458 kts | 185° |
| 2026-05-06 17:45 | 63.43102 | 25.19768 | 30422 ft | 458 kts | 185° |
| 2026-05-06 17:45 | 63.39919 | 25.19859 | 30671 ft | 458 kts | 185° |
| 2026-05-06 17:45 | 63.36739 | 25.19956 | 30872 ft | 457 kts | 186° |
| 2026-05-06 17:45 | 63.33555 | 25.20061 | 31139 ft | 457 kts | 186° |
| 2026-05-06 17:46 | 63.30377 | 25.20167 | 31394 ft | 457 kts | 186° |
| 2026-05-06 17:46 | 63.27198 | 25.20264 | 31654 ft | 457 kts | 186° |
| 2026-05-06 17:46 | 63.24062 | 25.20355 | 31922 ft | 457 kts | 186° |
| 2026-05-06 17:46 | 63.20887 | 25.20438 | 32189 ft | 457 kts | 186° |
| 2026-05-06 17:47 | 63.17708 | 25.20521 | 32442 ft | 457 kts | 186° |
| 2026-05-06 17:47 | 63.14531 | 25.20609 | 32703 ft | 457 kts | 185° |
| 2026-05-06 17:47 | 63.11355 | 25.20697 | 32972 ft | 456 kts | 185° |
| 2026-05-06 17:47 | 63.08179 | 25.20781 | 33234 ft | 456 kts | 185° |
| 2026-05-06 17:48 | 63.05006 | 25.20863 | 33444 ft | 456 kts | 185° |
| 2026-05-06 17:48 | 63.01872 | 25.20948 | 33712 ft | 456 kts | 186° |
| 2026-05-06 17:48 | 62.98698 | 25.21041 | 33970 ft | 456 kts | 186° |
| 2026-05-06 17:48 | 62.95519 | 25.21135 | 34178 ft | 456 kts | 186° |
| 2026-05-06 17:49 | 62.92344 | 25.21232 | 34400 ft | 456 kts | 186° |
| 2026-05-06 17:49 | 62.89168 | 25.21326 | 34628 ft | 456 kts | 185° |
| 2026-05-06 17:49 | 62.85995 | 25.21412 | 34816 ft | 457 kts | 185° |
| 2026-05-06 17:49 | 62.82814 | 25.21494 | 34881 ft | 458 kts | 185° |
| 2026-05-06 17:50 | 62.76444 | 25.21663 | 34884 ft | 458 kts | 185° |
| 2026-05-06 17:50 | 62.70114 | 25.21837 | 34859 ft | 458 kts | 186° |
| 2026-05-06 17:51 | 62.63759 | 25.22008 | 34890 ft | 456 kts | 186° |
| 2026-05-06 17:51 | 62.57420 | 25.22176 | 34893 ft | 455 kts | 186° |
| 2026-05-06 17:52 | 62.51082 | 25.22321 | 34893 ft | 456 kts | 186° |
| 2026-05-06 17:52 | 62.44738 | 25.22485 | 34894 ft | 456 kts | 186° |
| 2026-05-06 17:53 | 62.38436 | 25.22651 | 34906 ft | 456 kts | 186° |
| 2026-05-06 17:53 | 62.32089 | 25.22807 | 34907 ft | 456 kts | 186° |
| 2026-05-06 17:54 | 62.25739 | 25.22952 | 34913 ft | 456 kts | 186° |
| 2026-05-06 17:54 | 62.19391 | 25.23114 | 34915 ft | 456 kts | 186° |
| 2026-05-06 17:55 | 62.13081 | 25.23282 | 34921 ft | 456 kts | 186° |
| 2026-05-06 17:55 | 62.06728 | 25.23446 | 34922 ft | 456 kts | 186° |
| 2026-05-06 17:56 | 62.00385 | 25.23594 | 34912 ft | 455 kts | 187° |
| 2026-05-06 17:56 | 61.94063 | 25.23744 | 34924 ft | 454 kts | 187° |
| 2026-05-06 17:57 | 61.87761 | 25.23895 | 34942 ft | 453 kts | 187° |
| 2026-05-06 17:57 | 61.84655 | 25.23976 | 34768 ft | 451 kts | 187° |
| 2026-05-06 17:57 | 61.81526 | 25.24065 | 34536 ft | 449 kts | 187° |
| 2026-05-06 17:58 | 61.78402 | 25.24149 | 34305 ft | 448 kts | 187° |
| 2026-05-06 17:58 | 61.75286 | 25.24223 | 34075 ft | 448 kts | 188° |
| 2026-05-06 17:58 | 61.72173 | 25.24289 | 33275 ft | 448 kts | 188° |
| 2026-05-06 17:58 | 61.69058 | 25.24357 | 32280 ft | 447 kts | 189° |
| 2026-05-06 17:59 | 61.65949 | 25.24432 | 31251 ft | 447 kts | 190° |
| 2026-05-06 17:59 | 61.62838 | 25.24510 | 30294 ft | 446 kts | 191° |
| 2026-05-06 17:59 | 61.59730 | 25.24583 | 29078 ft | 448 kts | 192° |
| 2026-05-06 17:59 | 61.56658 | 25.24650 | 27928 ft | 447 kts | 192° |
| 2026-05-06 18:00 | 61.53549 | 25.24718 | 26772 ft | 446 kts | 192° |
| 2026-05-06 18:00 | 61.50436 | 25.24787 | 25564 ft | 448 kts | 192° |
| 2026-05-06 18:00 | 61.47317 | 25.24856 | 24402 ft | 449 kts | 192° |
| 2026-05-06 18:00 | 61.44195 | 25.24936 | 23223 ft | 449 kts | 192° |
| 2026-05-06 18:01 | 61.41073 | 25.25017 | 22027 ft | 448 kts | 190° |
| 2026-05-06 18:01 | 61.37986 | 25.25105 | 21143 ft | 439 kts | 189° |
| 2026-05-06 18:01 | 61.34961 | 25.25194 | 20357 ft | 432 kts | 189° |
| 2026-05-06 18:01 | 61.31965 | 25.25272 | 19499 ft | 428 kts | 189° |
| 2026-05-06 18:02 | 61.28999 | 25.25339 | 18705 ft | 424 kts | 189° |
| 2026-05-06 18:02 | 61.26094 | 25.25399 | 17851 ft | 422 kts | 188° |
| 2026-05-06 18:02 | 61.23176 | 25.25459 | 17062 ft | 417 kts | 187° |
| 2026-05-06 18:02 | 61.20292 | 25.25523 | 16306 ft | 412 kts | 187° |
| 2026-05-06 18:03 | 61.17437 | 25.25587 | 15575 ft | 408 kts | 186° |
| 2026-05-06 18:03 | 61.14608 | 25.25650 | 14870 ft | 405 kts | 185° |
| 2026-05-06 18:03 | 61.11800 | 25.25712 | 14187 ft | 402 kts | 184° |
| 2026-05-06 18:03 | 61.09017 | 25.25770 | 13485 ft | 399 kts | 184° |
| 2026-05-06 18:04 | 61.06260 | 25.25833 | 12784 ft | 393 kts | 184° |
| 2026-05-06 18:04 | 61.03547 | 25.25899 | 12168 ft | 387 kts | 184° |
| 2026-05-06 18:04 | 61.00912 | 25.25962 | 11530 ft | 381 kts | 183° |
| 2026-05-06 18:04 | 60.98296 | 25.26023 | 11193 ft | 368 kts | 183° |
| 2026-05-06 18:05 | 60.95791 | 25.26088 | 10968 ft | 353 kts | 183° |
| 2026-05-06 18:05 | 60.93374 | 25.26149 | 10704 ft | 341 kts | 183° |
| 2026-05-06 18:05 | 60.91040 | 25.26202 | 10447 ft | 330 kts | 183° |
| 2026-05-06 18:05 | 60.88776 | 25.26253 | 10194 ft | 321 kts | 183° |
| 2026-05-06 18:06 | 60.86577 | 25.26309 | 9997 ft | 310 kts | 183° |
| 2026-05-06 18:06 | 60.84494 | 25.26364 | 9945 ft | 296 kts | 183° |
| 2026-05-06 18:06 | 60.82462 | 25.26410 | 9954 ft | 290 kts | 183° |
| 2026-05-06 18:06 | 60.80452 | 25.26444 | 9957 ft | 289 kts | 184° |
| 2026-05-06 18:07 | 60.78446 | 25.26477 | 9958 ft | 288 kts | 184° |
| 2026-05-06 18:07 | 60.76444 | 25.26514 | 9856 ft | 286 kts | 183° |
| 2026-05-06 18:07 | 60.74455 | 25.26556 | 9445 ft | 285 kts | 183° |
| 2026-05-06 18:07 | 60.72487 | 25.26601 | 8811 ft | 281 kts | 182° |
| 2026-05-06 18:08 | 60.70534 | 25.26646 | 8097 ft | 279 kts | 182° |
| 2026-05-06 18:08 | 60.68599 | 25.26689 | 7400 ft | 277 kts | 182° |
| 2026-05-06 18:08 | 60.66671 | 25.26730 | 6854 ft | 277 kts | 182° |
| 2026-05-06 18:08 | 60.64774 | 25.26771 | 6476 ft | 275 kts | 182° |
| 2026-05-06 18:09 | 60.62881 | 25.26819 | 6053 ft | 270 kts | 181° |
| 2026-05-06 18:09 | 60.61015 | 25.26866 | 5517 ft | 267 kts | 182° |
| 2026-05-06 18:09 | 60.59161 | 25.26910 | 4995 ft | 265 kts | 182° |
| 2026-05-06 18:09 | 60.57324 | 25.26955 | 4457 ft | 263 kts | 182° |
| 2026-05-06 18:10 | 60.55497 | 25.26994 | 3940 ft | 263 kts | 182° |
| 2026-05-06 18:10 | 60.53678 | 25.27030 | 3514 ft | 261 kts | 182° |
| 2026-05-06 18:10 | 60.51884 | 25.27071 | 3248 ft | 252 kts | 182° |
| 2026-05-06 18:10 | 60.50152 | 25.27114 | 3112 ft | 243 kts | 183° |
| 2026-05-06 18:11 | 60.48511 | 25.27155 | 3001 ft | 230 kts | 183° |
| 2026-05-06 18:11 | 60.46973 | 25.26893 | 2970 ft | 214 kts | 199° |
| 2026-05-06 18:11 | 60.45676 | 25.25661 | 2976 ft | 206 kts | 220° |
| 2026-05-06 18:11 | 60.44667 | 25.23678 | 2977 ft | 197 kts | 231° |
| 2026-05-06 18:12 | 60.43781 | 25.21697 | 2973 ft | 185 kts | 231° |
| 2026-05-06 18:12 | 60.42928 | 25.19789 | 2958 ft | 183 kts | 232° |
| 2026-05-06 18:12 | 60.42068 | 25.17869 | 2818 ft | 184 kts | 231° |
| 2026-05-06 18:12 | 60.41215 | 25.15968 | 2611 ft | 182 kts | 231° |
| 2026-05-06 18:13 | 60.40354 | 25.14053 | 2368 ft | 185 kts | 231° |
| 2026-05-06 18:13 | 60.39482 | 25.12114 | 2129 ft | 184 kts | 231° |
| 2026-05-06 18:13 | 60.38642 | 25.10254 | 1860 ft | 174 kts | 231° |
| 2026-05-06 18:13 | 60.37856 | 25.08513 | 1602 ft | 160 kts | 231° |
| 2026-05-06 18:14 | 60.37149 | 25.06945 | 1408 ft | 144 kts | 230° |
| 2026-05-06 18:14 | 60.36501 | 25.05507 | 1200 ft | 133 kts | 231° |
| 2026-05-06 18:14 | 60.35893 | 25.04165 | 1031 ft | 127 kts | 230° |
| 2026-05-06 18:14 | 60.35303 | 25.02830 | 836 ft | 129 kts | 229° |
| 2026-05-06 18:15 | 60.34703 | 25.01507 | 677 ft | 127 kts | 229° |
| 2026-05-06 18:15 | 60.34108 | 25.00193 | 486 ft | 128 kts | 229° |
| 2026-05-06 18:15 | 60.33504 | 24.98858 | 336 ft | 129 kts | 229° |
| 2026-05-06 18:15 | 60.32903 | 24.97539 | 174 ft | 126 kts | 228° |
| 2026-05-06 18:16 | 60.32424 | 24.96486 | 175 ft | 64 kts | 228° |
| 2026-05-06 18:16 | 60.32211 | 24.96017 | 177 ft | 37 kts | 227° |
| 2026-05-06 18:16 | 60.32047 | 24.95731 | 173 ft | 29 kts | 208° |
| 2026-05-06 18:16 | 60.31903 | 24.95613 | 172 ft | 19 kts | 198° |
| 2026-05-06 18:17 | 60.31818 | 24.95651 | 172 ft | 9 kts | 97° |
| 2026-05-06 18:17 | 60.31841 | 24.95767 | 171 ft | 10 kts | 51° |
| 2026-05-06 18:17 | 60.31895 | 24.95889 | 171 ft | 16 kts | 47° |
| 2026-05-06 18:17 | 60.31903 | 24.96069 | 169 ft | 14 kts | 141° |
| 2026-05-06 18:18 | 60.31831 | 24.96172 | 168 ft | 9 kts | 141° |
| 2026-05-06 18:18 | 60.31792 | 24.96243 | 168 ft | 6 kts | 137° |
| 2026-05-06 18:18 | 60.31778 | 24.96269 | 168 ft | 1 kts | 137° |
| 2026-05-06 18:18 | 60.31778 | 24.96270 | 168 ft | 0 kts | 137° |